createdAt,value
2023-01-20T00:01:48.010Z,8.07
2023-01-20T00:04:19.111Z,7.93
2023-01-20T00:06:47.763Z,8.25
2023-01-20T00:09:18.311Z,7.85
2023-01-20T00:11:46.904Z,7.97
2023-01-20T00:14:15.453Z,9.45
2023-01-20T00:16:43.801Z,10.02
2023-01-20T00:19:14.183Z,10.70
2023-01-20T00:21:43.013Z,8.52
2023-01-20T00:24:11.197Z,8.27
2023-01-20T00:26:40.807Z,7.65
2023-01-20T00:29:10.797Z,9.50
2023-01-20T00:31:39.060Z,9.07
2023-01-20T00:34:07.296Z,8.93
2023-01-20T00:36:35.501Z,8.38
2023-01-20T00:39:04.813Z,9.57
2023-01-20T00:41:33.063Z,9.10
2023-01-20T00:44:02.593Z,8.65
2023-01-20T00:46:30.862Z,9.05
2023-01-20T00:48:59.012Z,9.70
2023-01-20T00:51:27.057Z,9.57
2023-01-20T00:53:55.168Z,10.38
2023-01-20T00:56:23.294Z,12.18
2023-01-20T00:58:51.486Z,15.10
2023-01-20T01:01:21.045Z,17.75
2023-01-20T01:03:49.298Z,15.80
2023-01-20T01:06:18.449Z,11.13
2023-01-20T01:08:46.724Z,7.90
2023-01-20T01:11:15.131Z,8.15
2023-01-20T01:13:43.816Z,9.80
2023-01-20T01:16:13.633Z,9.38
2023-01-20T01:18:44.196Z,9.20
2023-01-20T01:21:14.471Z,8.18
2023-01-20T01:23:42.692Z,8.05
2023-01-20T01:26:11.457Z,7.32
2023-01-20T01:28:39.919Z,8.35
2023-01-20T01:31:09.422Z,9.18
2023-01-20T01:33:38.009Z,8.85
2023-01-20T01:36:09.392Z,8.30
2023-01-20T01:38:37.519Z,8.80
2023-01-20T01:41:05.771Z,8.90
2023-01-20T01:43:35.545Z,8.88
2023-01-20T01:46:04.352Z,8.18
2023-01-20T01:48:36.873Z,8.73
2023-01-20T01:51:10.201Z,6.93
2023-01-20T01:53:42.587Z,7.30
2023-01-20T01:56:12.479Z,6.78
2023-01-20T01:58:45.634Z,7.95
2023-01-20T02:01:14.302Z,7.63
2023-01-20T02:03:50.584Z,7.65
2023-01-20T02:06:22.162Z,7.70
2023-01-20T02:08:50.421Z,7.90
2023-01-20T02:11:18.632Z,7.68
2023-01-20T02:13:46.878Z,7.80
2023-01-20T02:16:19.536Z,8.05
2023-01-20T02:19:01.960Z,7.80
2023-01-20T02:22:01.158Z,6.80
2023-01-20T02:25:07.806Z,7.78
2023-01-20T02:28:12.645Z,7.05
2023-01-20T02:30:56.855Z,7.35
2023-01-20T02:33:30.912Z,7.28
2023-01-20T02:36:03.719Z,7.35
2023-01-20T02:38:39.118Z,6.70
2023-01-20T02:41:11.706Z,7.65
2023-01-20T02:43:49.218Z,7.85
2023-01-20T02:46:25.364Z,7.38
2023-01-20T02:49:00.564Z,6.97
2023-01-20T02:51:34.562Z,7.07
2023-01-20T02:54:06.930Z,7.88
2023-01-20T02:56:36.052Z,7.25
2023-01-20T02:59:09.454Z,7.90
2023-01-20T03:01:41.220Z,7.40
2023-01-20T03:04:13.999Z,7.18
2023-01-20T03:06:47.803Z,6.80
2023-01-20T03:09:21.570Z,6.85
2023-01-20T03:11:55.963Z,6.55
2023-01-20T03:14:24.473Z,6.70
2023-01-20T03:16:52.702Z,6.93
2023-01-20T03:19:22.594Z,7.72
2023-01-20T03:21:50.732Z,7.78
2023-01-20T03:24:18.846Z,7.20
2023-01-20T03:26:47.043Z,6.32
2023-01-20T03:29:16.117Z,7.05
2023-01-20T03:31:48.291Z,7.72
2023-01-20T03:34:23.159Z,8.18
2023-01-20T03:36:53.115Z,6.85
2023-01-20T03:39:22.117Z,7.40
2023-01-20T03:42:00.764Z,7.82
2023-01-20T03:44:40.646Z,7.75
2023-01-20T03:47:15.684Z,7.50
2023-01-20T03:49:53.756Z,7.13
2023-01-20T03:52:48.120Z,7.18
2023-01-20T03:55:22.592Z,7.68
2023-01-20T03:57:56.062Z,7.72
2023-01-20T04:00:29.564Z,8.90
2023-01-20T04:03:01.805Z,7.80
2023-01-20T04:05:31.938Z,7.40
2023-01-20T04:08:03.005Z,7.13
2023-01-20T04:10:33.415Z,6.95
2023-01-20T04:13:01.600Z,6.60
2023-01-20T04:15:33.808Z,6.30
2023-01-20T04:18:12.578Z,6.80
2023-01-20T04:20:42.511Z,7.22
2023-01-20T04:23:19.391Z,5.90
2023-01-20T04:25:47.472Z,5.43
2023-01-20T04:28:15.513Z,5.50
2023-01-20T04:30:43.799Z,6.05
2023-01-20T04:33:11.915Z,6.22
2023-01-20T04:35:41.526Z,5.07
2023-01-20T04:38:09.777Z,5.40
2023-01-20T04:40:37.924Z,5.75
2023-01-20T04:43:05.975Z,5.53
2023-01-20T04:45:34.134Z,4.95
2023-01-20T04:48:02.223Z,5.15
2023-01-20T04:50:30.328Z,5.50
2023-01-20T04:53:00.874Z,5.22
2023-01-20T04:55:29.070Z,5.28
2023-01-20T04:57:57.163Z,5.07
2023-01-20T05:00:25.618Z,4.90
2023-01-20T05:02:53.894Z,6.22
2023-01-20T05:05:22.082Z,4.85
2023-01-20T05:07:53.554Z,5.75
2023-01-20T05:10:23.107Z,4.45
2023-01-20T05:12:51.268Z,5.43
2023-01-20T05:15:19.509Z,5.53
2023-01-20T05:17:47.759Z,5.43
2023-01-20T05:20:16.347Z,4.78
2023-01-20T05:22:44.553Z,4.82
2023-01-20T05:25:12.968Z,6.00
2023-01-20T05:27:42.583Z,5.88
2023-01-20T05:30:12.062Z,5.65
2023-01-20T05:32:40.775Z,5.43
2023-01-20T05:35:10.131Z,5.35
2023-01-20T05:37:38.357Z,4.47
2023-01-20T05:40:07.522Z,5.20
2023-01-20T05:42:35.684Z,5.40
2023-01-20T05:45:05.886Z,5.88
2023-01-20T05:47:34.075Z,5.45
2023-01-20T05:50:02.276Z,4.82
2023-01-20T05:52:30.457Z,5.53
2023-01-20T05:54:58.687Z,9.85
2023-01-20T05:57:27.322Z,7.57
2023-01-20T05:59:55.763Z,13.32
2023-01-20T06:02:25.249Z,7.20
2023-01-20T06:04:53.384Z,4.60
2023-01-20T06:07:21.542Z,4.35
2023-01-20T06:09:49.603Z,4.88
2023-01-20T06:12:17.736Z,5.15
2023-01-20T06:14:46.336Z,4.93
2023-01-20T06:17:14.500Z,4.90
2023-01-20T06:19:43.895Z,5.22
2023-01-20T06:22:15.753Z,4.90
2023-01-20T06:24:43.944Z,6.15
2023-01-20T06:27:13.680Z,4.95
2023-01-20T06:29:42.007Z,5.15
2023-01-20T06:32:10.141Z,5.65
2023-01-20T06:34:38.318Z,5.60
2023-01-20T06:37:07.795Z,4.88
2023-01-20T06:39:35.889Z,5.90
2023-01-20T06:42:04.031Z,5.05
2023-01-20T06:44:32.100Z,4.65
2023-01-20T06:47:00.283Z,5.70
2023-01-20T06:49:28.548Z,5.50
2023-01-20T06:51:56.668Z,4.75
2023-01-20T06:54:27.292Z,5.38
2023-01-20T06:56:55.691Z,5.07
2023-01-20T06:59:23.855Z,4.45
2023-01-20T07:01:52.278Z,4.78
2023-01-20T07:04:20.745Z,5.15
2023-01-20T07:06:48.902Z,5.10
2023-01-20T07:09:17.058Z,5.18
2023-01-20T07:11:46.564Z,5.63
2023-01-20T07:14:14.798Z,4.88
2023-01-20T07:16:43.046Z,4.80
2023-01-20T07:19:11.683Z,4.80
2023-01-20T07:21:39.944Z,5.45
2023-01-20T07:24:08.334Z,5.30
2023-01-20T07:26:36.560Z,5.93
2023-01-20T07:29:06.297Z,4.95
2023-01-20T07:31:34.632Z,5.75
2023-01-20T07:34:02.859Z,6.07
2023-01-20T07:36:31.030Z,5.53
2023-01-20T07:38:59.136Z,5.55
2023-01-20T07:41:27.335Z,6.70
2023-01-20T07:43:55.508Z,6.60
2023-01-20T07:46:25.061Z,6.55
2023-01-20T07:48:53.468Z,6.22
2023-01-20T07:51:21.676Z,5.93
2023-01-20T07:53:52.052Z,6.88
2023-01-20T07:56:22.405Z,5.47
2023-01-20T07:58:51.740Z,6.50
2023-01-20T08:01:21.739Z,5.53
2023-01-20T08:03:51.844Z,6.28
2023-01-20T08:06:22.003Z,5.80
2023-01-20T08:08:50.837Z,6.78
2023-01-20T08:11:21.356Z,6.25
2023-01-20T08:13:50.347Z,5.70
2023-01-20T08:16:19.921Z,6.72
2023-01-20T08:18:49.624Z,5.35
2023-01-20T08:21:22.031Z,6.07
2023-01-20T08:23:50.494Z,6.10
2023-01-20T08:26:19.698Z,5.88
2023-01-20T08:28:48.553Z,6.80
2023-01-20T08:31:18.989Z,5.90
2023-01-20T08:33:48.025Z,7.25
2023-01-20T08:36:19.083Z,5.80
2023-01-20T08:38:49.164Z,5.68
2023-01-20T08:41:19.572Z,6.00
2023-01-20T08:43:48.003Z,7.28
2023-01-20T08:46:18.054Z,6.45
2023-01-20T08:48:46.591Z,6.18
2023-01-20T08:51:19.259Z,5.18
2023-01-20T08:53:49.389Z,4.88
2023-01-20T08:56:18.953Z,5.25
2023-01-20T08:58:47.984Z,5.10
2023-01-20T09:01:18.435Z,5.00
2023-01-20T09:04:03.703Z,5.70
2023-01-20T09:06:38.929Z,6.15
2023-01-20T09:09:08.881Z,7.07
2023-01-20T09:11:37.788Z,5.57
2023-01-20T09:14:06.234Z,6.20
2023-01-20T09:16:34.539Z,5.43
2023-01-20T09:19:03.422Z,5.88
2023-01-20T09:21:31.870Z,5.35
2023-01-20T09:24:01.252Z,7.10
2023-01-20T09:26:41.775Z,5.55
2023-01-20T09:29:12.547Z,5.35
2023-01-20T09:31:45.448Z,5.25
2023-01-20T09:34:19.255Z,5.28
2023-01-20T09:36:50.999Z,5.45
2023-01-20T09:39:37.308Z,4.45
2023-01-20T09:42:42.008Z,5.20
2023-01-20T09:45:25.125Z,5.75
2023-01-20T09:48:02.727Z,5.70
2023-01-20T09:50:56.337Z,5.50
2023-01-20T09:53:49.439Z,4.80
2023-01-20T09:56:19.528Z,4.95
2023-01-20T09:58:54.203Z,5.40
2023-01-20T10:01:30.743Z,5.28
2023-01-20T10:04:07.698Z,6.30
2023-01-20T10:06:41.469Z,5.47
2023-01-20T10:09:21.259Z,5.95
2023-01-20T10:11:52.328Z,5.45
2023-01-20T10:14:26.653Z,5.63
2023-01-20T10:16:59.196Z,5.72
2023-01-20T10:19:33.571Z,4.90
2023-01-20T10:22:11.302Z,5.88
2023-01-20T10:24:48.490Z,5.15
2023-01-20T10:27:16.914Z,5.90
2023-01-20T10:29:50.753Z,4.75
2023-01-20T10:32:27.688Z,4.95
2023-01-20T10:34:59.143Z,5.30
2023-01-20T10:37:27.703Z,4.95
2023-01-20T10:39:59.626Z,4.80
2023-01-20T10:42:28.692Z,4.88
2023-01-20T10:45:00.807Z,5.60
2023-01-20T10:47:49.826Z,5.85
2023-01-20T10:50:36.162Z,5.20
2023-01-20T10:53:23.744Z,4.65
2023-01-20T10:56:03.432Z,4.68
2023-01-20T10:58:33.004Z,3.40
2023-01-20T11:01:09.017Z,4.15
2023-01-20T11:03:41.724Z,4.20
2023-01-20T11:06:17.611Z,4.97
2023-01-20T11:08:45.896Z,4.70
2023-01-20T11:11:16.989Z,4.63
2023-01-20T11:13:45.718Z,5.38
2023-01-20T11:16:19.708Z,4.82
2023-01-20T11:19:00.257Z,4.60
2023-01-20T11:21:30.770Z,4.82
2023-01-20T11:24:00.293Z,5.27
2023-01-20T11:26:31.479Z,4.97
2023-01-20T11:29:01.905Z,3.80
2023-01-20T11:31:43.222Z,4.70
2023-01-20T11:34:23.705Z,4.90
2023-01-20T11:37:07.590Z,5.10
2023-01-20T11:39:37.386Z,5.20
2023-01-20T11:42:15.566Z,5.30
2023-01-20T11:44:44.870Z,5.17
2023-01-20T11:47:28.005Z,5.30
2023-01-20T11:50:21.111Z,5.22
2023-01-20T11:52:49.375Z,5.55
2023-01-20T11:55:19.182Z,6.17
2023-01-20T11:57:51.897Z,5.88
2023-01-20T12:00:32.607Z,4.93
2023-01-20T12:03:04.559Z,4.53
2023-01-20T12:05:40.482Z,4.72
2023-01-20T12:08:16.030Z,5.40
2023-01-20T12:10:45.982Z,4.97
2023-01-20T12:13:20.548Z,6.20
2023-01-20T12:15:53.932Z,6.78
2023-01-20T12:18:34.501Z,5.87
2023-01-20T12:21:09.265Z,4.13
2023-01-20T12:23:45.758Z,3.43
2023-01-20T12:26:16.520Z,2.50
2023-01-20T12:28:58.542Z,2.73
2023-01-20T12:31:27.308Z,2.77
2023-01-20T12:34:01.748Z,2.77
2023-01-20T12:36:56.904Z,2.75
2023-01-20T12:39:34.275Z,2.37
2023-01-20T12:42:37.688Z,2.30
2023-01-20T12:45:20.610Z,2.03
2023-01-20T12:48:03.410Z,1.90
2023-01-20T12:50:45.456Z,1.67
2023-01-20T12:53:33.007Z,1.90
2023-01-20T12:56:11.487Z,2.03
2023-01-20T12:58:49.444Z,1.80
2023-01-20T13:01:31.001Z,1.50
2023-01-20T13:04:34.273Z,1.50
2023-01-20T13:07:39.229Z,1.83
2023-01-20T13:10:30.488Z,1.40
2023-01-20T13:13:05.275Z,2.00
2023-01-20T13:15:39.491Z,1.88
2023-01-20T13:18:21.924Z,1.52
2023-01-20T13:20:51.865Z,2.00
2023-01-20T13:23:26.422Z,2.15
2023-01-20T13:25:55.846Z,2.20
2023-01-20T13:28:26.156Z,2.35
2023-01-20T13:30:55.650Z,2.65
2023-01-20T13:33:34.235Z,2.25
2023-01-20T13:36:14.398Z,2.22
2023-01-20T13:38:44.507Z,2.35
2023-01-20T13:41:13.201Z,2.20
2023-01-20T13:43:50.385Z,2.47
2023-01-20T13:46:49.963Z,1.75
2023-01-20T13:49:50.583Z,1.92
2023-01-20T13:52:48.720Z,1.48
2023-01-20T13:55:31.474Z,1.80
2023-01-20T13:57:59.722Z,1.90
2023-01-20T14:00:28.019Z,1.80
2023-01-20T14:02:56.527Z,2.33
2023-01-20T14:05:31.283Z,2.15
2023-01-20T14:08:00.234Z,2.30
2023-01-20T14:10:30.450Z,2.07
2023-01-20T14:12:58.719Z,1.80
2023-01-20T14:15:41.142Z,1.75
2023-01-20T14:18:17.687Z,2.20
2023-01-20T14:21:03.608Z,1.60
2023-01-20T14:23:37.891Z,1.93
2023-01-20T14:26:11.081Z,2.00
2023-01-20T14:28:47.936Z,1.80
2023-01-20T14:31:37.673Z,1.50
2023-01-20T14:34:25.272Z,1.95
2023-01-20T14:36:54.163Z,2.60
2023-01-20T14:39:25.203Z,2.00
2023-01-20T14:41:56.499Z,1.98
2023-01-20T14:44:26.466Z,2.00
2023-01-20T14:46:57.806Z,2.53
2023-01-20T14:49:30.621Z,2.25
2023-01-20T14:51:59.612Z,2.17
2023-01-20T14:54:39.133Z,2.28
2023-01-20T14:57:31.417Z,2.35
2023-01-20T15:00:21.203Z,2.38
2023-01-20T15:03:05.326Z,1.92
2023-01-20T15:05:40.358Z,1.85
2023-01-20T15:08:24.404Z,2.10
2023-01-20T15:11:22.108Z,4.65
2023-01-20T15:14:12.062Z,2.63
2023-01-20T15:16:51.111Z,2.53
2023-01-20T15:19:31.297Z,2.83
2023-01-20T15:22:23.116Z,3.13
2023-01-20T15:24:52.007Z,2.80
2023-01-20T15:27:24.558Z,3.65
2023-01-20T15:30:14.537Z,3.50
2023-01-20T15:32:42.897Z,2.90
2023-01-20T15:35:14.538Z,3.25
2023-01-20T15:37:43.608Z,2.70
2023-01-20T15:40:20.531Z,3.10
2023-01-20T15:42:49.859Z,3.50
2023-01-20T15:45:19.813Z,2.83
2023-01-20T15:47:49.229Z,2.90
2023-01-20T15:50:20.582Z,3.20
2023-01-20T15:52:49.788Z,3.13
2023-01-20T15:55:20.295Z,3.10
2023-01-20T15:57:52.208Z,3.13
2023-01-20T16:00:24.517Z,2.95
2023-01-20T16:02:53.083Z,2.70
2023-01-20T16:05:21.429Z,3.17
2023-01-20T16:07:50.387Z,3.97
2023-01-20T16:10:20.068Z,3.75
2023-01-20T16:12:48.777Z,3.25
2023-01-20T16:15:18.789Z,3.47
2023-01-20T16:17:50.913Z,3.90
2023-01-20T16:20:25.042Z,3.75
2023-01-20T16:22:53.623Z,3.40
2023-01-20T16:25:23.468Z,3.42
2023-01-20T16:27:51.722Z,3.40
2023-01-20T16:30:21.866Z,3.67
2023-01-20T16:32:51.630Z,6.15
2023-01-20T16:35:21.274Z,5.22
2023-01-20T16:37:49.663Z,5.28
2023-01-20T16:40:20.726Z,4.93
2023-01-20T16:42:49.382Z,4.90
2023-01-20T16:45:27.498Z,5.88
2023-01-20T16:47:57.545Z,6.43
2023-01-20T16:50:28.677Z,6.35
2023-01-20T16:52:57.733Z,7.55
2023-01-20T16:55:26.497Z,12.90
2023-01-20T16:57:55.709Z,9.30
2023-01-20T17:00:25.995Z,4.15
2023-01-20T17:02:58.980Z,4.78
2023-01-20T17:05:31.827Z,7.35
2023-01-20T17:08:01.042Z,7.50
2023-01-20T17:10:32.561Z,6.05
2023-01-20T17:13:01.040Z,6.32
2023-01-20T17:15:29.280Z,4.22
2023-01-20T17:18:00.322Z,4.60
2023-01-20T17:20:30.940Z,5.90
2023-01-20T17:23:00.727Z,5.00
2023-01-20T17:25:29.444Z,5.20
2023-01-20T17:27:57.785Z,4.18
2023-01-20T17:30:26.717Z,4.15
2023-01-20T17:32:56.111Z,13.57
2023-01-20T17:35:28.464Z,6.63
2023-01-20T17:37:58.295Z,4.07
2023-01-20T17:40:26.691Z,4.20
2023-01-20T17:42:54.967Z,5.00
2023-01-20T17:45:23.607Z,4.03
2023-01-20T17:47:52.646Z,3.55
2023-01-20T17:50:23.180Z,4.50
2023-01-20T17:52:55.250Z,5.25
2023-01-20T17:55:25.067Z,4.90
2023-01-20T17:57:53.424Z,5.03
2023-01-20T18:00:22.280Z,4.25
2023-01-20T18:02:50.989Z,4.00
2023-01-20T18:05:19.816Z,6.00
2023-01-20T18:07:49.734Z,9.35
2023-01-20T18:10:19.871Z,6.88
2023-01-20T18:12:50.037Z,6.13
2023-01-20T18:15:18.495Z,14.35
2023-01-20T18:17:46.981Z,13.57
2023-01-20T18:20:18.207Z,5.88
2023-01-20T18:22:50.371Z,7.50
2023-01-20T18:25:20.157Z,6.05
2023-01-20T18:27:49.444Z,4.20
2023-01-20T18:30:18.700Z,2.83
2023-01-20T18:32:47.276Z,4.72
2023-01-20T18:35:16.092Z,3.65
2023-01-20T18:37:44.544Z,4.40
2023-01-20T18:40:14.459Z,3.40
2023-01-20T18:42:45.173Z,3.65
2023-01-20T18:45:13.527Z,5.03
2023-01-20T18:47:41.886Z,5.30
2023-01-20T18:50:11.383Z,7.20
2023-01-20T18:52:39.619Z,6.65
2023-01-20T18:55:09.649Z,4.70
2023-01-20T18:57:38.155Z,4.95
2023-01-20T19:00:09.617Z,4.85
2023-01-20T19:02:37.979Z,6.53
2023-01-20T19:05:06.920Z,4.35
2023-01-20T19:07:35.247Z,3.92
2023-01-20T19:10:03.372Z,7.13
2023-01-20T19:12:31.612Z,7.90
2023-01-20T19:14:59.923Z,5.03
2023-01-20T19:17:30.938Z,5.25
2023-01-20T19:19:59.163Z,5.65
2023-01-20T19:22:27.311Z,6.53
2023-01-20T19:24:55.832Z,6.60
2023-01-20T19:27:26.689Z,7.45
2023-01-20T19:29:55.795Z,6.38
2023-01-20T19:32:24.122Z,6.72
2023-01-20T19:34:53.744Z,7.90
2023-01-20T19:37:22.280Z,5.13
2023-01-20T19:39:50.841Z,6.30
2023-01-20T19:42:20.863Z,7.05
2023-01-20T19:44:49.030Z,7.88
2023-01-20T19:47:17.309Z,5.75
2023-01-20T19:49:45.458Z,7.75
2023-01-20T19:52:15.214Z,7.13
2023-01-20T19:54:43.481Z,5.97
2023-01-20T19:57:11.714Z,5.28
2023-01-20T19:59:40.942Z,4.38
2023-01-20T20:02:10.497Z,4.13
2023-01-20T20:04:38.784Z,4.82
2023-01-20T20:07:06.986Z,5.15
2023-01-20T20:09:38.118Z,4.50
2023-01-20T20:12:07.851Z,4.13
2023-01-20T20:14:36.103Z,4.90
2023-01-20T20:17:04.767Z,6.70
2023-01-20T20:19:33.046Z,6.65
2023-01-20T20:22:01.296Z,5.22
2023-01-20T20:24:30.129Z,5.20
2023-01-20T20:26:59.963Z,4.57
2023-01-20T20:29:28.234Z,4.15
2023-01-20T20:31:56.531Z,4.32
2023-01-20T20:34:24.848Z,5.25
2023-01-20T20:36:53.131Z,4.50
2023-01-20T20:39:21.359Z,4.10
2023-01-20T20:41:49.829Z,4.18
2023-01-20T20:44:19.696Z,4.63
2023-01-20T20:46:49.092Z,5.05
2023-01-20T20:49:17.727Z,3.80
2023-01-20T20:51:46.417Z,3.85
2023-01-20T20:54:17.120Z,5.35
2023-01-20T20:56:46.026Z,5.50
2023-01-20T20:59:14.599Z,4.28
2023-01-20T21:01:44.330Z,5.50
2023-01-20T21:04:12.555Z,8.95
2023-01-20T21:06:41.080Z,6.45
2023-01-20T21:09:09.733Z,5.65
2023-01-20T21:11:38.658Z,4.65
2023-01-20T21:14:08.648Z,4.40
2023-01-20T21:16:38.013Z,4.55
2023-01-20T21:19:09.136Z,4.15
2023-01-20T21:21:37.455Z,3.50
2023-01-20T21:24:13.911Z,4.30
2023-01-20T21:26:43.134Z,4.60
2023-01-20T21:29:12.294Z,4.57
2023-01-20T21:31:40.729Z,5.65
2023-01-20T21:34:15.385Z,4.05
2023-01-20T21:36:43.873Z,5.75
2023-01-20T21:39:14.501Z,5.40
2023-01-20T21:41:43.030Z,5.80
2023-01-20T21:44:32.627Z,5.03
2023-01-20T21:47:03.384Z,6.40
2023-01-20T21:50:02.223Z,6.70
2023-01-20T21:52:44.336Z,5.40
2023-01-20T21:55:15.947Z,6.15
2023-01-20T21:57:44.553Z,6.68
2023-01-20T22:00:14.464Z,6.22
2023-01-20T22:02:44.854Z,5.70
2023-01-20T22:05:15.384Z,6.20
2023-01-20T22:07:43.809Z,5.55
2023-01-20T22:10:12.935Z,4.68
2023-01-20T22:12:41.463Z,5.10
2023-01-20T22:15:10.448Z,4.65
2023-01-20T22:17:39.204Z,5.55
2023-01-20T22:20:08.995Z,4.80
2023-01-20T22:22:39.884Z,5.88
2023-01-20T22:25:08.865Z,8.07
2023-01-20T22:27:37.045Z,8.13
2023-01-20T22:30:05.684Z,4.85
2023-01-20T22:32:34.062Z,6.50
2023-01-20T22:35:02.316Z,6.05
2023-01-20T22:37:32.514Z,5.40
2023-01-20T22:40:02.322Z,6.97
2023-01-20T22:42:30.440Z,7.50
2023-01-20T22:44:58.644Z,8.10
2023-01-20T22:47:27.224Z,7.30
2023-01-20T22:49:56.826Z,6.03
2023-01-20T22:52:25.148Z,6.43
2023-01-20T22:54:53.351Z,7.07
2023-01-20T22:57:23.145Z,5.93
2023-01-20T22:59:51.260Z,10.20
2023-01-20T23:02:19.637Z,11.02
2023-01-20T23:04:47.911Z,13.18
2023-01-20T23:07:16.186Z,9.82
2023-01-20T23:09:44.556Z,8.20
2023-01-20T23:12:13.005Z,7.25
2023-01-20T23:15:02.200Z,7.35
2023-01-20T23:17:32.014Z,6.82
2023-01-20T23:20:00.302Z,7.10
2023-01-20T23:22:30.042Z,5.88
2023-01-20T23:24:58.219Z,7.60
2023-01-20T23:27:26.282Z,5.82
2023-01-20T23:29:55.869Z,6.63
2023-01-20T23:32:24.340Z,7.70
2023-01-20T23:34:52.976Z,8.13
2023-01-20T23:37:21.137Z,9.65
2023-01-20T23:39:52.384Z,7.28
2023-01-20T23:42:21.074Z,6.43
2023-01-20T23:44:49.279Z,5.50
2023-01-20T23:47:18.799Z,4.88
2023-01-20T23:49:47.109Z,5.47
2023-01-20T23:52:15.598Z,5.47
2023-01-20T23:54:44.848Z,5.40
2023-01-20T23:57:13.008Z,7.95
2023-01-20T23:59:41.163Z,5.38
